Time,TemperatureF,DewpointF,PressureIn,WindDirection,WindDirectionDegrees,WindSpeedMPH,WindSpeedGustMPH,Humidity,HourlyPrecipIn,Conditions,Clouds,dailyrainin,SoftwareType,DateUTC
2013-08-18 00:05:00,63.9,63.0,25.84,South,169,7.0,13.0,95,0.00,,,0.00,weatherlink.com 1.10,2013-08-18 06:05:00,
2013-08-18 00:20:00,63.8,62.0,25.84,SW,216,8.0,12.0,95,0.00,,,0.00,weatherlink.com 1.10,2013-08-18 06:20:00,
2013-08-18 00:35:00,63.9,63.0,25.84,SSE,160,11.0,14.0,96,0.00,,,0.00,weatherlink.com 1.10,2013-08-18 06:35:00,
2013-08-18 00:50:00,64.0,63.0,25.84,SSW,212,11.0,15.0,96,0.00,,,0.00,weatherlink.com 1.10,2013-08-18 06:50:00,
2013-08-18 01:05:00,63.9,63.0,25.83,SSW,212,10.0,14.0,96,0.00,,,0.00,weatherlink.com 1.10,2013-08-18 07:05:00,
2013-08-18 01:20:00,63.9,63.0,25.83,SSW,204,10.0,14.0,97,0.00,,,0.00,weatherlink.com 1.10,2013-08-18 07:20:00,
2013-08-18 01:35:00,63.9,63.0,25.83,WSW,257,7.0,17.0,97,0.00,,,0.00,weatherlink.com 1.10,2013-08-18 07:35:00,
2013-08-18 01:50:00,63.9,63.0,25.83,SSW,198,5.0,12.0,97,0.00,,,0.00,weatherlink.com 1.10,2013-08-18 07:50:00,
2013-08-18 02:05:00,63.8,63.0,25.82,SSW,194,12.0,13.0,97,0.00,,,0.00,weatherlink.com 1.10,2013-08-18 08:05:00,
2013-08-18 02:20:00,63.7,63.0,25.82,SSW,207,5.0,11.0,97,0.00,,,0.00,weatherlink.com 1.10,2013-08-18 08:20:00,
2013-08-18 02:35:00,63.4,63.0,25.82,SSW,195,5.0,12.0,97,0.00,,,0.00,weatherlink.com 1.10,2013-08-18 08:35:00,
2013-08-18 02:50:00,63.1,62.0,25.82,SW,229,10.0,12.0,97,0.00,,,0.00,weatherlink.com 1.10,2013-08-18 08:50:00,
2013-08-18 03:05:00,62.9,62.0,25.82,SSW,212,8.0,14.0,97,0.00,,,0.00,weatherlink.com 1.10,2013-08-18 09:05:00,
2013-08-18 03:20:00,63.0,62.0,25.82,SSW,207,8.0,13.0,97,0.00,,,0.00,weatherlink.com 1.10,2013-08-18 09:20:00,
2013-08-18 03:35:00,63.2,63.0,25.81,SW,215,6.0,13.0,98,0.00,,,0.00,weatherlink.com 1.10,2013-08-18 09:35:00,
2013-08-18 03:50:00,63.4,63.0,25.81,SSE,166,10.0,13.0,98,0.00,,,0.00,weatherlink.com 1.10,2013-08-18 09:50:00,
2013-08-18 04:05:00,63.5,63.0,25.81,SSE,167,4.0,8.0,98,0.00,,,0.00,weatherlink.com 1.10,2013-08-18 10:05:00,
2013-08-18 04:20:00,63.5,63.0,25.81,SSW,210,6.0,9.0,98,0.00,,,0.00,weatherlink.com 1.10,2013-08-18 10:20:00,
2013-08-18 04:35:00,63.6,63.0,25.81,SW,217,6.0,13.0,98,0.00,,,0.00,weatherlink.com 1.10,2013-08-18 10:35:00,
2013-08-18 04:50:00,63.7,63.0,25.81,SW,232,7.0,12.0,98,0.00,,,0.00,weatherlink.com 1.10,2013-08-18 10:50:00,
2013-08-18 05:05:00,63.5,63.0,25.81,WSW,239,8.0,13.0,98,0.00,,,0.00,weatherlink.com 1.10,2013-08-18 11:05:00,
2013-08-18 05:20:00,63.5,63.0,25.81,SW,218,5.0,11.0,98,0.00,,,0.00,weatherlink.com 1.10,2013-08-18 11:20:00,
2013-08-18 05:35:00,63.5,63.0,25.81,SE,145,7.0,12.0,98,0.00,,,0.00,weatherlink.com 1.10,2013-08-18 11:35:00,
2013-08-18 05:50:00,63.6,63.0,25.82,West,271,8.0,14.0,98,0.00,,,0.00,weatherlink.com 1.10,2013-08-18 11:50:00,
2013-08-18 06:05:00,63.7,63.0,25.82,SSW,197,5.0,12.0,98,0.00,,,0.00,weatherlink.com 1.10,2013-08-18 12:05:00,
2013-08-18 06:20:00,63.7,63.0,25.82,SW,220,6.0,12.0,98,0.00,,,0.00,weatherlink.com 1.10,2013-08-18 12:20:00,
2013-08-18 06:35:00,63.8,63.0,25.82,SSW,201,5.0,12.0,98,0.00,,,0.00,weatherlink.com 1.10,2013-08-18 12:35:00,
2013-08-18 06:50:00,64.0,64.0,25.82,SSE,167,4.0,13.0,98,0.00,,,0.00,weatherlink.com 1.10,2013-08-18 12:50:00,
2013-08-18 07:05:00,64.2,64.0,25.82,SSE,156,5.0,11.0,98,0.00,,,0.00,weatherlink.com 1.10,2013-08-18 13:05:00,
2013-08-18 07:20:00,64.4,64.0,25.82,SW,219,7.0,13.0,98,0.00,,,0.00,weatherlink.com 1.10,2013-08-18 13:20:00,
2013-08-18 07:36:00,64.6,64.0,25.82,SSW,204,8.0,13.0,98,0.00,,,0.00,weatherlink.com 1.10,2013-08-18 13:36:00,
2013-08-18 07:51:00,64.7,64.0,25.82,SW,232,8.0,17.0,98,0.00,,,0.00,weatherlink.com 1.10,2013-08-18 13:51:00,
2013-08-18 08:06:00,64.7,64.0,25.82,SW,232,9.0,13.0,98,0.00,,,0.00,weatherlink.com 1.10,2013-08-18 14:06:00,
2013-08-18 08:21:00,65.0,65.0,25.82,SW,222,6.0,15.0,98,0.00,,,0.00,weatherlink.com 1.10,2013-08-18 14:21:00,
2013-08-18 08:36:00,65.0,65.0,25.82,South,178,15.0,16.0,98,0.00,,,0.00,weatherlink.com 1.10,2013-08-18 14:36:00,
2013-08-18 08:51:00,65.1,65.0,25.82,SSE,167,12.0,15.0,98,0.00,,,0.00,weatherlink.com 1.10,2013-08-18 14:51:00,
2013-08-18 09:06:00,65.4,65.0,25.82,South,173,7.0,15.0,98,0.00,,,0.00,weatherlink.com 1.10,2013-08-18 15:06:00,
2013-08-18 09:21:00,65.6,65.0,25.83,SSW,206,8.0,15.0,98,0.00,,,0.00,weatherlink.com 1.10,2013-08-18 15:21:00,
2013-08-18 09:36:00,65.9,65.0,25.82,SSE,155,9.0,20.0,98,0.00,,,0.00,weatherlink.com 1.10,2013-08-18 15:36:00,
2013-08-18 09:51:00,66.4,66.0,25.83,SSW,204,14.0,18.0,98,0.00,,,0.00,weatherlink.com 1.10,2013-08-18 15:51:00,
2013-08-18 10:06:00,66.8,66.0,25.82,SE,134,9.0,20.0,97,0.00,,,0.00,weatherlink.com 1.10,2013-08-18 16:06:00,
2013-08-18 10:21:00,67.6,67.0,25.82,SW,218,10.0,15.0,96,0.00,,,0.00,weatherlink.com 1.10,2013-08-18 16:21:00,
2013-08-18 10:36:00,68.8,66.0,25.82,SSE,167,12.0,14.0,92,0.00,,,0.00,weatherlink.com 1.10,2013-08-18 16:36:00,
2013-08-18 10:51:00,69.8,66.0,25.82,SW,226,10.0,18.0,87,0.00,,,0.00,weatherlink.com 1.10,2013-08-18 16:51:00,
2013-08-18 11:06:00,71.4,66.0,25.82,WSW,243,12.0,15.0,84,0.00,,,0.00,weatherlink.com 1.10,2013-08-18 17:06:00,
2013-08-18 11:21:00,72.9,66.0,25.82,SSW,198,9.0,16.0,80,0.00,,,0.00,weatherlink.com 1.10,2013-08-18 17:21:00,
2013-08-18 11:36:00,74.2,66.0,25.83,SSW,195,4.0,16.0,76,0.00,,,0.00,weatherlink.com 1.10,2013-08-18 17:36:00,
2013-08-18 11:51:00,75.3,67.0,25.82,WSW,252,7.0,19.0,74,0.00,,,0.00,weatherlink.com 1.10,2013-08-18 17:51:00,
2013-08-18 12:06:00,76.2,66.0,25.82,SSE,150,11.0,15.0,71,0.00,,,0.00,weatherlink.com 1.10,2013-08-18 18:06:00,
2013-08-18 12:21:00,77.4,66.0,25.82,SW,235,12.0,15.0,69,0.00,,,0.00,weatherlink.com 1.10,2013-08-18 18:21:00,
2013-08-18 12:36:00,78.3,67.0,25.82,West,281,3.0,12.0,68,0.00,,,0.00,weatherlink.com 1.10,2013-08-18 18:36:00,
2013-08-18 12:51:00,80.4,67.0,25.82,SSE,165,6.0,12.0,63,0.00,,,0.00,weatherlink.com 1.10,2013-08-18 18:51:00,
2013-08-18 13:06:00,81.0,67.0,25.82,WSW,252,7.0,14.0,62,0.00,,,0.00,weatherlink.com 1.10,2013-08-18 19:06:00,
2013-08-18 13:21:00,82.7,66.0,25.82,West,264,7.0,12.0,57,0.00,,,0.00,weatherlink.com 1.10,2013-08-18 19:21:00,
2013-08-18 13:36:00,83.4,66.0,25.82,SW,229,2.0,10.0,56,0.00,,,0.00,weatherlink.com 1.10,2013-08-18 19:36:00,
2013-08-18 13:52:00,86.6,66.0,25.83,East,98,2.0,7.0,50,0.00,,,0.00,weatherlink.com 1.10,2013-08-18 19:52:00,
2013-08-18 14:07:00,87.1,66.0,25.82,WNW,284,2.0,6.0,49,0.00,,,0.00,weatherlink.com 1.10,2013-08-18 20:07:00,
2013-08-18 14:22:00,88.0,66.0,25.82,North,9,5.0,6.0,49,0.00,,,0.00,weatherlink.com 1.10,2013-08-18 20:22:00,
2013-08-18 14:37:00,87.4,66.0,25.82,NE,43,6.0,7.0,49,0.00,,,0.00,weatherlink.com 1.10,2013-08-18 20:37:00,
2013-08-18 14:52:00,86.5,63.0,25.82,East,79,3.0,6.0,46,0.00,,,0.00,weatherlink.com 1.10,2013-08-18 20:52:00,
2013-08-18 15:07:00,85.5,64.0,25.81,ENE,70,1.0,9.0,48,0.00,,,0.00,weatherlink.com 1.10,2013-08-18 21:07:00,
2013-08-18 15:22:00,86.3,64.0,25.81,ENE,72,4.0,8.0,47,0.00,,,0.00,weatherlink.com 1.10,2013-08-18 21:22:00,
2013-08-18 15:37:00,87.1,63.0,25.81,ESE,106,1.0,8.0,45,0.00,,,0.00,weatherlink.com 1.10,2013-08-18 21:37:00,
2013-08-18 15:52:00,87.4,64.0,25.80,WSW,245,4.0,10.0,45,0.00,,,0.00,weatherlink.com 1.10,2013-08-18 21:52:00,
2013-08-18 16:07:00,88.3,64.0,25.79,SE,145,9.0,12.0,44,0.00,,,0.00,weatherlink.com 1.10,2013-08-18 22:07:00,
2013-08-18 16:22:00,89.0,62.0,25.79,SW,226,7.0,13.0,40,0.00,,,0.00,weatherlink.com 1.10,2013-08-18 22:22:00,
2013-08-18 16:37:00,89.7,62.0,25.79,SSE,167,9.0,9.0,39,0.00,,,0.00,weatherlink.com 1.10,2013-08-18 22:37:00,
2013-08-18 16:52:00,87.6,64.0,25.78,SSE,165,14.0,14.0,46,0.00,,,0.00,weatherlink.com 1.10,2013-08-18 22:52:00,
2013-08-18 17:07:00,87.2,65.0,25.78,SE,134,9.0,18.0,47,0.00,,,0.00,weatherlink.com 1.10,2013-08-18 23:07:00,
2013-08-18 17:22:00,86.0,65.0,25.78,WSW,240,10.0,14.0,49,0.00,,,0.00,weatherlink.com 1.10,2013-08-18 23:22:00,
2013-08-18 17:37:00,85.6,64.0,25.78,SSW,210,10.0,15.0,49,0.00,,,0.00,weatherlink.com 1.10,2013-08-18 23:37:00,
2013-08-18 17:52:00,84.5,65.0,25.78,SSE,156,16.0,18.0,52,0.00,,,0.00,weatherlink.com 1.10,2013-08-18 23:52:00,
2013-08-18 18:07:00,83.7,65.0,25.79,South,184,10.0,17.0,53,0.00,,,0.00,weatherlink.com 1.10,2013-08-19 00:07:00,
2013-08-18 18:22:00,82.8,64.0,25.79,SSE,150,11.0,18.0,54,0.00,,,0.00,weatherlink.com 1.10,2013-08-19 00:22:00,
2013-08-18 18:37:00,81.9,64.0,25.79,SSE,154,11.0,14.0,55,0.00,,,0.00,weatherlink.com 1.10,2013-08-19 00:37:00,
2013-08-18 18:52:00,80.7,63.0,25.78,SSW,210,13.0,18.0,55,0.00,,,0.00,weatherlink.com 1.10,2013-08-19 00:52:00,
2013-08-18 19:07:00,79.9,62.0,25.80,South,191,15.0,19.0,55,0.00,,,0.00,weatherlink.com 1.10,2013-08-19 01:07:00,
2013-08-18 19:22:00,79.4,62.0,25.82,SSW,205,10.0,16.0,56,0.00,,,0.00,weatherlink.com 1.10,2013-08-19 01:22:00,
2013-08-18 19:37:00,78.6,63.0,25.83,SW,218,8.0,15.0,59,0.00,,,0.00,weatherlink.com 1.10,2013-08-19 01:37:00,
2013-08-18 19:52:00,75.1,60.0,25.83,WSW,246,12.0,18.0,60,0.00,,,0.00,weatherlink.com 1.10,2013-08-19 01:52:00,
2013-08-18 20:07:00,71.8,60.0,25.83,WSW,243,6.0,12.0,66,0.00,,,0.00,weatherlink.com 1.10,2013-08-19 02:07:00,
2013-08-18 20:22:00,70.4,59.0,25.82,West,266,0.0,5.0,67,0.00,,,0.00,weatherlink.com 1.10,2013-08-19 02:22:00,
2013-08-18 20:37:00,70.1,58.0,25.81,SE,145,6.0,10.0,66,0.00,,,0.00,weatherlink.com 1.10,2013-08-19 02:37:00,
2013-08-18 20:52:00,70.6,58.0,25.82,SSE,165,4.0,8.0,64,0.00,,,0.00,weatherlink.com 1.10,2013-08-19 02:52:00,
2013-08-18 21:07:00,70.3,58.0,25.83,South,172,0.0,6.0,66,0.00,,,0.00,weatherlink.com 1.10,2013-08-19 03:07:00,
2013-08-18 21:22:00,68.4,58.0,25.84,ENE,61,0.0,2.0,70,0.00,,,0.00,weatherlink.com 1.10,2013-08-19 03:22:00,
2013-08-18 21:37:00,67.5,58.0,25.84,NE,56,0.0,1.0,72,0.00,,,0.00,weatherlink.com 1.10,2013-08-19 03:37:00,
2013-08-18 21:52:00,66.7,58.0,25.84,NNE,30,0.0,2.0,74,0.00,,,0.00,weatherlink.com 1.10,2013-08-19 03:52:00,
2013-08-18 22:07:00,66.0,58.0,25.83,NNE,27,0.0,1.0,76,0.00,,,0.00,weatherlink.com 1.10,2013-08-19 04:07:00,
2013-08-18 22:22:00,65.8,58.0,25.83,ESE,109,0.0,1.0,77,0.00,,,0.00,weatherlink.com 1.10,2013-08-19 04:22:00,
2013-08-18 22:37:00,66.4,59.0,25.83,ESE,109,0.0,0.0,76,0.00,,,0.00,weatherlink.com 1.10,2013-08-19 04:37:00,
2013-08-18 22:52:00,66.2,58.0,25.83,WSW,243,0.0,1.0,76,0.00,,,0.00,weatherlink.com 1.10,2013-08-19 04:52:00,
2013-08-18 23:07:00,67.3,58.0,25.83,SSW,206,2.0,3.0,72,0.00,,,0.00,weatherlink.com 1.10,2013-08-19 05:07:00,
2013-08-18 23:22:00,67.8,57.0,25.83,SW,231,5.0,6.0,68,0.00,,,0.00,weatherlink.com 1.10,2013-08-19 05:22:00,
2013-08-18 23:37:00,68.2,56.0,25.83,WSW,243,3.0,6.0,66,0.00,,,0.00,weatherlink.com 1.10,2013-08-19 05:37:00,
2013-08-18 23:52:00,66.8,57.0,25.83,West,260,1.0,4.0,70,0.00,,,0.00,weatherlink.com 1.10,2013-08-19 05:52:00,